Time;durP1;ratioP1;P1;durP2;ratioP2;P2;SDS_P1;SDS_P2;PMS_P1;PMS_P2;Temp;Humidity;BMP_temperature;BMP_pressure;BME280_temperature;BME280_humidity;BME280_pressure;Samples;Min_cycle;Max_cycle;Signal;HPM_P1;HPM_P2
2023/06/18 00:00:40;;;;;;;6.97;5.57;;;;;;;;;;4995666;28;20217;-70
2023/06/18 00:03:44;;;;;;;6.00;5.13;;;;;;;;;;4994428;28;20584;-71
2023/06/18 00:06:49;;;;;;;6.37;5.30;;;;;;;;;;4994474;28;20201;-71
2023/06/18 00:09:53;;;;;;;6.77;5.87;;;;;;;;;;4995491;28;20186;-71
2023/06/18 00:12:57;;;;;;;6.43;5.23;;;;;;;;;;4995197;28;20182;-71
2023/06/18 00:16:01;;;;;;;6.00;5.27;;;;;;;;;;4994324;28;20198;-71
2023/06/18 00:19:05;;;;;;;6.60;5.33;;;;;;;;;;4994600;28;20186;-71
2023/06/18 00:22:09;;;;;;;5.97;5.30;;;;;;;;;;4994180;28;20561;-71
2023/06/18 00:25:15;;;;;;;5.70;5.10;;;;;;;;;;4994108;28;20190;-71
2023/06/18 00:28:19;;;;;;;7.47;5.13;;;;;;;;;;4995178;28;20182;-71
2023/06/18 00:31:25;;;;;;;7.23;5.60;;;;;;;;;;4982984;28;20218;-71
2023/06/18 00:34:32;;;;;;;6.13;5.50;;;;;;;;;;4994026;28;20174;-71
2023/06/18 00:37:37;;;;;;;8.27;5.47;;;;;;;;;;4995038;28;20178;-71
2023/06/18 00:40:41;;;;;;;6.27;5.60;;;;;;;;;;4982655;28;20230;-71
2023/06/18 00:43:45;;;;;;;6.57;5.20;;;;;;;;;;4982951;28;20210;-71
2023/06/18 00:46:51;;;;;;;6.07;5.40;;;;;;;;;;4993782;28;20182;-71
2023/06/18 00:49:55;;;;;;;6.67;5.40;;;;;;;;;;4993998;28;20182;-71
2023/06/18 00:52:59;;;;;;;6.77;5.30;;;;;;;;;;4993647;28;20202;-71
2023/06/18 00:56:04;;;;;;;6.83;5.70;;;;;;;;;;4993757;28;20178;-71
2023/06/18 00:59:10;;;;;;;6.40;5.40;;;;;;;;;;4993593;28;20179;-71
2023/06/18 01:02:23;;;;;;;10.37;5.33;;;;;;;;;;4981925;28;20218;-71
2023/06/18 01:05:31;;;;;;;6.87;5.33;;;;;;;;;;4993466;28;20182;-71
2023/06/18 01:08:36;;;;;;;6.73;5.20;;;;;;;;;;4993959;28;20182;-71
2023/06/18 01:11:40;;;;;;;7.70;5.50;;;;;;;;;;4982185;28;20218;-71
2023/06/18 01:14:50;;;;;;;6.80;5.37;;;;;;;;;;4993589;28;20182;-71
2023/06/18 01:17:58;;;;;;;6.60;5.60;;;;;;;;;;4993317;28;20202;-71
2023/06/18 01:21:09;;;;;;;6.50;5.40;;;;;;;;;;4993425;28;20221;-71
2023/06/18 01:24:23;;;;;;;8.10;5.13;;;;;;;;;;4994189;28;20210;-71
2023/06/18 01:27:33;;;;;;;7.30;5.63;;;;;;;;;;4993125;28;20198;-70
2023/06/18 01:30:39;;;;;;;8.80;5.50;;;;;;;;;;4993544;28;20523;-71
2023/06/18 01:33:43;;;;;;;7.23;5.57;;;;;;;;;;4981968;28;20637;-71
2023/06/18 01:37:05;;;;;;;7.50;5.63;;;;;;;;;;4993262;28;20182;-71
2023/06/18 01:40:21;;;;;;;6.63;5.93;;;;;;;;;;4993860;28;20210;-71
2023/06/18 01:43:29;;;;;;;6.63;5.50;;;;;;;;;;4993139;28;20210;-71
2023/06/18 01:46:33;;;;;;;6.53;5.83;;;;;;;;;;4982053;28;20186;-71
2023/06/18 01:49:43;;;;;;;6.67;5.20;;;;;;;;;;4993730;28;20182;-71
2023/06/18 01:52:49;;;;;;;6.77;5.70;;;;;;;;;;4993184;28;20178;-71
2023/06/18 01:55:56;;;;;;;7.07;5.40;;;;;;;;;;4993885;28;20182;-70
2023/06/18 01:59:02;;;;;;;8.20;5.67;;;;;;;;;;4993881;28;20178;-71
2023/06/18 02:02:06;;;;;;;6.67;5.97;;;;;;;;;;4992849;28;20218;-71
2023/06/18 02:05:10;;;;;;;7.57;5.60;;;;;;;;;;4992932;28;20221;-71
2023/06/18 02:08:14;;;;;;;7.87;5.97;;;;;;;;;;4992768;28;20198;-71
2023/06/18 02:11:19;;;;;;;7.13;5.97;;;;;;;;;;4981522;28;20217;-71
2023/06/18 02:14:23;;;;;;;8.80;6.30;;;;;;;;;;4996110;28;20194;-71
2023/06/18 02:17:28;;;;;;;7.73;6.17;;;;;;;;;;4985387;28;20201;-71
2023/06/18 02:20:32;;;;;;;8.73;6.30;;;;;;;;;;4997585;28;20178;-71
2023/06/18 02:23:39;;;;;;;7.23;5.83;;;;;;;;;;4996401;28;20549;-71
2023/06/18 02:26:43;;;;;;;7.17;5.73;;;;;;;;;;4997228;28;20190;-71
2023/06/18 02:29:47;;;;;;;9.00;6.87;;;;;;;;;;4997725;28;20186;-71
2023/06/18 02:32:52;;;;;;;8.27;5.83;;;;;;;;;;4997078;28;20186;-71
2023/06/18 02:35:57;;;;;;;7.47;5.77;;;;;;;;;;4996536;28;20514;-71
2023/06/18 02:39:01;;;;;;;8.00;5.77;;;;;;;;;;4997536;28;20186;-71
2023/06/18 02:42:06;;;;;;;7.67;5.87;;;;;;;;;;4984943;28;20213;-71
2023/06/18 02:45:12;;;;;;;7.70;6.00;;;;;;;;;;4996823;28;20205;-71
2023/06/18 02:48:17;;;;;;;8.20;6.20;;;;;;;;;;4996134;28;20187;-71
2023/06/18 02:51:22;;;;;;;9.07;6.07;;;;;;;;;;4996042;28;20214;-71
2023/06/18 02:54:26;;;;;;;9.30;7.27;;;;;;;;;;4996168;28;20179;-71
2023/06/18 02:57:30;;;;;;;7.87;6.37;;;;;;;;;;4996668;28;20182;-71
2023/06/18 03:00:34;;;;;;;7.00;6.10;;;;;;;;;;4995985;28;20178;-71
2023/06/18 03:03:39;;;;;;;7.40;6.00;;;;;;;;;;4995627;28;20205;-71
2023/06/18 03:06:42;;;;;;;8.67;6.60;;;;;;;;;;4995670;28;20197;-71
2023/06/18 03:09:46;;;;;;;7.57;6.50;;;;;;;;;;4995658;28;20178;-71
2023/06/18 03:12:51;;;;;;;7.10;5.97;;;;;;;;;;4996646;28;20186;-71
2023/06/18 03:16:16;;;;;;;7.53;5.60;;;;;;;;;;4984598;28;20178;-71
2023/06/18 03:19:20;;;;;;;7.90;7.00;;;;;;;;;;4995716;28;20183;-71
2023/06/18 03:22:25;;;;;;;6.67;5.70;;;;;;;;;;4995324;28;20210;-71
2023/06/18 03:25:30;;;;;;;8.40;6.63;;;;;;;;;;4994975;28;20573;-70
2023/06/18 03:28:35;;;;;;;7.13;6.10;;;;;;;;;;4995536;28;20178;-71
2023/06/18 03:31:39;;;;;;;7.33;5.93;;;;;;;;;;4995381;28;20218;-71
2023/06/18 03:34:48;;;;;;;7.63;6.17;;;;;;;;;;4995438;28;20178;-71
2023/06/18 03:37:54;;;;;;;8.93;6.43;;;;;;;;;;4984161;28;20194;-71
2023/06/18 03:40:59;;;;;;;7.80;6.50;;;;;;;;;;4995097;28;20708;-71
2023/06/18 03:44:04;;;;;;;7.60;6.17;;;;;;;;;;4995192;28;20210;-71
2023/06/18 03:47:09;;;;;;;10.53;6.43;;;;;;;;;;4994902;28;20182;-71
2023/06/18 03:50:14;;;;;;;7.67;6.20;;;;;;;;;;4995151;28;20186;-71
2023/06/18 03:53:19;;;;;;;9.73;6.07;;;;;;;;;;4972998;28;20190;-71
2023/06/18 03:56:24;;;;;;;9.07;6.60;;;;;;;;;;4994724;28;20194;-70
2023/06/18 03:59:29;;;;;;;7.63;6.57;;;;;;;;;;4994694;28;20182;-71
2023/06/18 04:02:34;;;;;;;7.90;5.97;;;;;;;;;;4994614;28;20222;-70
2023/06/18 04:05:38;;;;;;;6.97;6.10;;;;;;;;;;4983850;28;20225;-71
2023/06/18 04:08:42;;;;;;;7.07;6.00;;;;;;;;;;4995272;28;20550;-71
2023/06/18 04:11:52;;;;;;;8.53;6.10;;;;;;;;;;4994644;28;20226;-71
2023/06/18 04:14:57;;;;;;;7.13;6.40;;;;;;;;;;4994690;28;20179;-71
2023/06/18 04:18:02;;;;;;;7.93;6.53;;;;;;;;;;4972116;28;20178;-71
2023/06/18 04:21:06;;;;;;;8.33;6.70;;;;;;;;;;4983234;28;20221;-70
2023/06/18 04:24:12;;;;;;;9.47;7.07;;;;;;;;;;4983020;28;20222;-71
2023/06/18 04:27:17;;;;;;;8.23;6.93;;;;;;;;;;4994109;28;20202;-71
2023/06/18 04:30:22;;;;;;;16.40;6.67;;;;;;;;;;4994039;28;20178;-71
2023/06/18 04:33:27;;;;;;;8.57;6.70;;;;;;;;;;4982977;28;20182;-71
2023/06/18 04:36:31;;;;;;;10.57;7.17;;;;;;;;;;4993409;28;20178;-71
2023/06/18 04:39:36;;;;;;;9.87;7.30;;;;;;;;;;4982673;28;20213;-71
2023/06/18 04:42:40;;;;;;;9.97;7.00;;;;;;;;;;5013287;23;20233;-71
2023/06/18 04:45:48;;;;;;;9.40;7.47;;;;;;;;;;5013615;28;20217;-73
2023/06/18 04:48:55;;;;;;;8.90;7.00;;;;;;;;;;5013388;28;20185;-73
2023/06/18 04:51:59;;;;;;;7.80;7.00;;;;;;;;;;5024638;28;20213;-73
2023/06/18 04:55:05;;;;;;;9.53;7.60;;;;;;;;;;5013296;28;20173;-73
2023/06/18 04:58:10;;;;;;;9.63;7.17;;;;;;;;;;5024895;28;20177;-74
2023/06/18 05:01:14;;;;;;;11.70;7.40;;;;;;;;;;5013418;28;20213;-71
2023/06/18 05:04:19;;;;;;;9.73;7.40;;;;;;;;;;5013341;28;20538;-72
2023/06/18 05:07:24;;;;;;;9.47;8.13;;;;;;;;;;5024724;28;20185;-72
2023/06/18 05:10:28;;;;;;;9.07;7.97;;;;;;;;;;5024302;28;20174;-71
2023/06/18 05:13:32;;;;;;;10.20;8.00;;;;;;;;;;5024588;28;20178;-73
2023/06/18 05:16:36;;;;;;;8.13;7.33;;;;;;;;;;5014031;28;20223;-71
2023/06/18 05:19:41;;;;;;;11.90;8.53;;;;;;;;;;5024506;28;20177;-72
2023/06/18 05:22:47;;;;;;;9.60;7.67;;;;;;;;;;5002105;28;20664;-73
2023/06/18 05:25:52;;;;;;;9.57;8.33;;;;;;;;;;5012948;28;20205;-71
2023/06/18 05:28:56;;;;;;;14.03;8.20;;;;;;;;;;5013345;28;20177;-71
2023/06/18 05:32:01;;;;;;;10.87;8.27;;;;;;;;;;5013538;28;20216;-71
2023/06/18 05:35:09;;;;;;;10.77;7.50;;;;;;;;;;5024286;28;20182;-71
2023/06/18 05:38:19;;;;;;;9.63;7.67;;;;;;;;;;5002715;28;20174;-71
2023/06/18 05:41:24;;;;;;;8.97;8.07;;;;;;;;;;5012614;28;20216;-71
2023/06/18 05:44:28;;;;;;;9.33;7.97;;;;;;;;;;5012522;28;20186;-71
2023/06/18 05:47:32;;;;;;;8.50;7.70;;;;;;;;;;5012454;28;20186;-72
2023/06/18 05:50:37;;;;;;;11.23;8.73;;;;;;;;;;5012702;28;20186;-71
2023/06/18 05:53:41;;;;;;;9.30;8.17;;;;;;;;;;5024162;28;20178;-72
2023/06/18 05:56:46;;;;;;;8.90;8.00;;;;;;;;;;5001176;28;20660;-71
2023/06/18 05:59:50;;;;;;;11.77;8.47;;;;;;;;;;5013520;28;20177;-72
2023/06/18 06:02:54;;;;;;;11.80;8.57;;;;;;;;;;5001462;28;20181;-71
2023/06/18 06:06:01;;;;;;;11.43;9.07;;;;;;;;;;5012616;28;20201;-72
2023/06/18 06:09:05;;;;;;;12.00;8.80;;;;;;;;;;5013187;28;20182;-72
2023/06/18 06:12:10;;;;;;;10.73;8.60;;;;;;;;;;5001778;28;20217;-71
2023/06/18 06:15:15;;;;;;;12.77;10.00;;;;;;;;;;5012635;28;20178;-71
2023/06/18 06:18:20;;;;;;;8.67;7.77;;;;;;;;;;5023595;28;20189;-71
2023/06/18 06:21:24;;;;;;;11.20;8.53;;;;;;;;;;5013150;28;20221;-72
2023/06/18 06:24:28;;;;;;;8.30;7.37;;;;;;;;;;5012452;28;20190;-72
2023/06/18 06:27:33;;;;;;;10.03;8.40;;;;;;;;;;5023801;28;20178;-72
2023/06/18 06:30:37;;;;;;;8.80;7.90;;;;;;;;;;5001167;28;20177;-72
2023/06/18 06:33:44;;;;;;;12.90;7.63;;;;;;;;;;5023533;28;20170;-72
2023/06/18 06:36:49;;;;;;;9.60;7.70;;;;;;;;;;5012714;28;20620;-72
2023/06/18 06:39:54;;;;;;;9.23;8.23;;;;;;;;;;5012726;28;20509;-71
2023/06/18 06:43:00;;;;;;;7.57;6.80;;;;;;;;;;5023345;28;20197;-72
2023/06/18 06:46:09;;;;;;;8.70;7.80;;;;;;;;;;5011995;28;20660;-72
2023/06/18 06:49:22;;;;;;;8.97;7.70;;;;;;;;;;5012310;28;20182;-71
2023/06/18 06:53:05;;;;;;;10.10;7.67;;;;;;;;;;4954913;28;20183;-71
2023/06/18 06:56:10;;;;;;;8.43;7.27;;;;;;;;;;4949543;28;20184;-71
2023/06/18 06:59:15;;;;;;;7.47;6.27;;;;;;;;;;5012196;28;20173;-71
2023/06/18 07:02:19;;;;;;;10.37;6.30;;;;;;;;;;5004053;28;20691;-71
2023/06/18 07:05:24;;;;;;;8.37;6.40;;;;;;;;;;5016076;28;20209;-71
2023/06/18 07:08:28;;;;;;;9.40;6.80;;;;;;;;;;5015241;28;20185;-71
2023/06/18 07:11:33;;;;;;;8.00;6.03;;;;;;;;;;5015274;28;20213;-72
2023/06/18 07:14:37;;;;;;;7.07;6.37;;;;;;;;;;5016239;28;20177;-72
2023/06/18 07:17:41;;;;;;;8.07;6.90;;;;;;;;;;5016054;28;20178;-71
2023/06/18 07:20:45;;;;;;;7.10;6.17;;;;;;;;;;5015746;28;20221;-71
2023/06/18 07:23:49;;;;;;;9.43;6.23;;;;;;;;;;5016044;28;20197;-71
2023/06/18 07:26:54;;;;;;;7.37;6.07;;;;;;;;;;5014988;28;20209;-71
2023/06/18 07:29:58;;;;;;;9.57;6.20;;;;;;;;;;5015095;28;20205;-71
2023/06/18 07:33:03;;;;;;;7.33;6.30;;;;;;;;;;5015588;28;20183;-71
2023/06/18 07:36:07;;;;;;;6.47;5.63;;;;;;;;;;5015562;28;20186;-72
2023/06/18 07:39:11;;;;;;;8.40;5.80;;;;;;;;;;5014783;28;20183;-72
2023/06/18 07:42:15;;;;;;;5.95;5.32;;;;;;;;;;5015367;28;20228;-72
2023/06/18 07:45:20;;;;;;;9.48;6.05;;;;;;;;;;5015567;28;20215;-72
2023/06/18 07:48:24;;;;;;;6.70;5.25;;;;;;;;;;5014674;28;20188;-71
2023/06/18 07:51:28;;;;;;;6.32;5.72;;;;;;;;;;5015476;28;20227;-72
2023/06/18 07:54:34;;;;;;;9.48;5.90;;;;;;;;;;5014373;28;20247;-72
2023/06/18 07:57:38;;;;;;;6.07;5.47;;;;;;;;;;5014323;28;20180;-72
2023/06/18 08:00:42;;;;;;;7.97;5.82;;;;;;;;;;5014443;28;20564;-72
2023/06/18 08:03:47;;;;;;;12.13;8.10;;;;;;;;;;5015315;28;20647;-72
2023/06/18 08:06:51;;;;;;;8.98;7.55;;;;;;;;;;5015202;28;20216;-72
2023/06/18 08:09:55;;;;;;;6.80;6.10;;;;;;;;;;5015174;28;20188;-72
2023/06/18 08:12:59;;;;;;;6.35;5.57;;;;;;;;;;5014055;28;20188;-72
2023/06/18 08:16:04;;;;;;;6.68;5.40;;;;;;;;;;5015100;28;20171;-72
2023/06/18 08:19:08;;;;;;;7.53;5.45;;;;;;;;;;5013932;28;20186;-72
2023/06/18 08:22:12;;;;;;;6.20;5.32;;;;;;;;;;5013749;28;20213;-72
2023/06/18 08:25:16;;;;;;;6.40;5.28;;;;;;;;;;5014832;28;20181;-72
2023/06/18 08:28:20;;;;;;;7.25;5.55;;;;;;;;;;5013786;28;20177;-72
2023/06/18 08:31:25;;;;;;;6.45;4.90;;;;;;;;;;5025217;28;20704;-72
2023/06/18 08:34:29;;;;;;;17.80;5.22;;;;;;;;;;5003044;28;20178;-72
2023/06/18 08:37:33;;;;;;;7.43;4.10;;;;;;;;;;5014679;28;20655;-72
2023/06/18 08:40:50;;;;;;;4.75;3.75;;;;;;;;;;5014628;28;20185;-72
2023/06/18 08:43:55;;;;;;;5.13;4.13;;;;;;;;;;5013805;28;20182;-72
2023/06/18 08:47:01;;;;;;;5.18;3.67;;;;;;;;;;5014122;28;20229;-72
2023/06/18 08:50:06;;;;;;;4.13;3.72;;;;;;;;;;5025311;28;20190;-72
2023/06/18 08:53:16;;;;;;;4.35;3.60;;;;;;;;;;5013645;28;20186;-72
2023/06/18 08:56:24;;;;;;;5.90;4.07;;;;;;;;;;5014267;28;20629;-72
2023/06/18 08:59:31;;;;;;;4.70;4.07;;;;;;;;;;5013507;28;20182;-72
2023/06/18 09:02:35;;;;;;;4.18;3.83;;;;;;;;;;5013888;28;20218;-72
2023/06/18 09:05:40;;;;;;;4.65;4.25;;;;;;;;;;5013322;28;20213;-72
2023/06/18 09:08:46;;;;;;;4.43;3.90;;;;;;;;;;5014164;28;20185;-72
2023/06/18 09:11:51;;;;;;;4.32;3.80;;;;;;;;;;5012824;28;20217;-72
2023/06/18 09:14:57;;;;;;;5.03;3.85;;;;;;;;;;5011625;28;20182;-72
2023/06/18 09:18:02;;;;;;;6.28;3.90;;;;;;;;;;5011418;28;20189;-72
2023/06/18 09:21:06;;;;;;;5.28;4.00;;;;;;;;;;5012358;28;20706;-72
2023/06/18 09:24:21;;;;;;;7.35;4.20;;;;;;;;;;5011686;28;20185;-72
2023/06/18 09:27:32;;;;;;;4.05;3.75;;;;;;;;;;5022499;28;20552;-72
2023/06/18 09:30:36;;;;;;;4.65;4.25;;;;;;;;;;5012245;28;20182;-72
2023/06/18 09:33:40;;;;;;;5.45;4.30;;;;;;;;;;5011892;28;20632;-72
2023/06/18 09:36:47;;;;;;;5.45;4.05;;;;;;;;;;5010908;28;20189;-72
2023/06/18 09:39:53;;;;;;;4.10;3.70;;;;;;;;;;5010834;28;20538;-72
2023/06/18 09:43:00;;;;;;;4.70;4.03;;;;;;;;;;5000169;28;20213;-72
2023/06/18 09:46:06;;;;;;;5.72;3.65;;;;;;;;;;5011703;28;20210;-72
2023/06/18 09:49:12;;;;;;;4.85;4.35;;;;;;;;;;5011317;28;20573;-71
2023/06/18 09:52:16;;;;;;;4.78;4.10;;;;;;;;;;5010189;28;20210;-71
2023/06/18 09:55:29;;;;;;;4.18;3.78;;;;;;;;;;5010185;28;20186;-72
2023/06/18 09:58:48;;;;;;;4.70;4.25;;;;;;;;;;5010220;28;20194;-72
2023/06/18 10:01:54;;;;;;;4.30;3.90;;;;;;;;;;5021355;28;20217;-71
2023/06/18 10:04:59;;;;;;;6.20;4.22;;;;;;;;;;5020992;28;20198;-72
2023/06/18 10:08:06;;;;;;;4.10;3.70;;;;;;;;;;5010595;28;20194;-72
2023/06/18 10:11:11;;;;;;;6.22;4.38;;;;;;;;;;5009697;28;20229;-72
2023/06/18 10:14:18;;;;;;;5.47;4.28;;;;;;;;;;5009425;28;20519;-72
2023/06/18 10:17:28;;;;;;;4.95;4.03;;;;;;;;;;5010599;28;20186;-72
2023/06/18 10:20:33;;;;;;;5.43;4.20;;;;;;;;;;5010869;28;20182;-72
2023/06/18 10:23:38;;;;;;;4.72;3.83;;;;;;;;;;5010496;28;20499;-72
2023/06/18 10:26:43;;;;;;;5.25;4.53;;;;;;;;;;5010353;28;20209;-71
2023/06/18 10:29:47;;;;;;;4.63;4.20;;;;;;;;;;5008013;28;20182;-71
2023/06/18 10:32:53;;;;;;;6.57;4.03;;;;;;;;;;5012584;28;20182;-72
2023/06/18 10:35:58;;;;;;;5.03;4.45;;;;;;;;;;5026295;28;20182;-72
2023/06/18 10:39:02;;;;;;;5.18;4.05;;;;;;;;;;5016875;28;20629;-72
2023/06/18 10:42:16;;;;;;;4.97;4.07;;;;;;;;;;5030664;23;20707;-72
2023/06/18 10:45:21;;;;;;;4.90;4.45;;;;;;;;;;5016279;28;20517;-72
2023/06/18 10:48:28;;;;;;;5.55;4.30;;;;;;;;;;5016480;28;20516;-72
2023/06/18 10:51:32;;;;;;;5.05;4.47;;;;;;;;;;5016384;28;20213;-71
2023/06/18 10:54:38;;;;;;;4.55;4.15;;;;;;;;;;5016579;28;20633;-72
2023/06/18 10:57:58;;;;;;;4.50;4.10;;;;;;;;;;5016349;28;20182;-72
2023/06/18 11:01:02;;;;;;;5.85;4.50;;;;;;;;;;5016028;28;20225;-72
2023/06/18 11:04:06;;;;;;;5.00;4.13;;;;;;;;;;5004128;28;20182;-72
2023/06/18 11:07:23;;;;;;;4.72;4.30;;;;;;;;;;5004073;28;20554;-72
2023/06/18 11:10:34;;;;;;;5.03;4.53;;;;;;;;;;5016164;28;20182;-72
2023/06/18 11:13:40;;;;;;;4.65;4.25;;;;;;;;;;5016167;28;20186;-71
2023/06/18 11:17:10;;;;;;;7.05;4.32;;;;;;;;;;5015874;28;20194;-72
2023/06/18 11:20:17;;;;;;;4.63;4.05;;;;;;;;;;5015618;28;20182;-72
2023/06/18 11:23:25;;;;;;;5.30;4.80;;;;;;;;;;5015724;28;20178;-72
2023/06/18 11:26:31;;;;;;;5.28;4.25;;;;;;;;;;5015622;28;20226;-72
2023/06/18 11:29:36;;;;;;;5.65;4.13;;;;;;;;;;5015044;28;20648;-72
2023/06/18 11:32:42;;;;;;;4.80;4.32;;;;;;;;;;5015681;28;20217;-72
2023/06/18 11:35:46;;;;;;;4.65;4.18;;;;;;;;;;5015185;28;20182;-72
2023/06/18 11:38:51;;;;;;;5.72;4.28;;;;;;;;;;5015989;28;20174;-72
2023/06/18 11:42:19;;;;;;;5.47;4.13;;;;;;;;;;5014617;28;20214;-72
2023/06/18 11:45:24;;;;;;;5.80;4.43;;;;;;;;;;5014555;28;20173;-72
2023/06/18 11:48:33;;;;;;;4.32;3.92;;;;;;;;;;5015364;28;20174;-72
2023/06/18 11:51:37;;;;;;;5.90;4.40;;;;;;;;;;5014841;28;20213;-72
2023/06/18 11:54:43;;;;;;;6.35;4.53;;;;;;;;;;5014885;28;20181;-71
2023/06/18 11:57:48;;;;;;;5.28;4.30;;;;;;;;;;5015561;28;20181;-71
2023/06/18 12:00:56;;;;;;;6.70;4.25;;;;;;;;;;5015272;28;20213;-72
2023/06/18 12:04:08;;;;;;;4.32;3.90;;;;;;;;;;5015117;28;20185;-71
2023/06/18 12:07:23;;;;;;;5.63;5.00;;;;;;;;;;5015347;28;20213;-72
2023/06/18 12:10:27;;;;;;;5.00;4.60;;;;;;;;;;5015346;28;20186;-72
2023/06/18 12:13:41;;;;;;;6.20;4.40;;;;;;;;;;5015341;28;20543;-72
2023/06/18 12:16:50;;;;;;;5.13;4.72;;;;;;;;;;5015547;28;20178;-71
2023/06/18 12:20:01;;;;;;;4.88;4.13;;;;;;;;;;5015178;28;20621;-72
2023/06/18 12:23:05;;;;;;;5.30;4.28;;;;;;;;;;5015095;28;20178;-71
2023/06/18 12:26:10;;;;;;;4.95;4.43;;;;;;;;;;5014751;28;20178;-72
2023/06/18 12:29:14;;;;;;;5.93;4.32;;;;;;;;;;5014282;28;20514;-72
2023/06/18 12:32:18;;;;;;;5.03;4.53;;;;;;;;;;5014574;28;20221;-71
2023/06/18 12:35:24;;;;;;;4.78;4.10;;;;;;;;;;5014705;28;20190;-72
2023/06/18 12:38:38;;;;;;;4.80;4.30;;;;;;;;;;5014572;28;20174;-72
2023/06/18 12:41:44;;;;;;;6.53;4.47;;;;;;;;;;5014171;28;20210;-72
2023/06/18 12:44:51;;;;;;;4.95;4.45;;;;;;;;;;5014412;28;20198;-72
2023/06/18 12:47:55;;;;;;;5.38;4.88;;;;;;;;;;5014295;28;20213;-72
2023/06/18 12:51:00;;;;;;;7.03;4.75;;;;;;;;;;5013632;28;20213;-71
2023/06/18 12:54:15;;;;;;;7.82;4.80;;;;;;;;;;5014495;28;20182;-74
2023/06/18 12:57:21;;;;;;;5.70;4.55;;;;;;;;;;5012666;28;20182;-72
2023/06/18 13:00:25;;;;;;;8.18;4.60;;;;;;;;;;5002208;28;20518;-72
2023/06/18 13:03:30;;;;;;;6.57;4.38;;;;;;;;;;5014034;28;20178;-72
2023/06/18 13:06:34;;;;;;;8.73;4.55;;;;;;;;;;5014136;28;20182;-72
2023/06/18 13:09:40;;;;;;;5.53;4.75;;;;;;;;;;5013947;28;20645;-72
2023/06/18 13:12:44;;;;;;;6.20;4.82;;;;;;;;;;5013833;28;20688;-72
2023/06/18 13:15:51;;;;;;;4.80;4.30;;;;;;;;;;5014174;28;20178;-72
2023/06/18 13:18:56;;;;;;;4.88;4.40;;;;;;;;;;5013032;28;20632;-72
2023/06/18 13:22:01;;;;;;;4.97;4.40;;;;;;;;;;5014132;28;20213;-72
2023/06/18 13:25:05;;;;;;;7.28;5.03;;;;;;;;;;5013128;28;20197;-72
2023/06/18 13:28:09;;;;;;;5.07;4.57;;;;;;;;;;5013815;28;20565;-72
2023/06/18 13:31:13;;;;;;;6.47;4.50;;;;;;;;;;5013518;28;20608;-72
2023/06/18 13:34:17;;;;;;;4.80;4.30;;;;;;;;;;5012965;28;20198;-72
2023/06/18 13:37:21;;;;;;;6.50;4.80;;;;;;;;;;5012783;28;20197;-70
2023/06/18 13:40:27;;;;;;;5.25;4.80;;;;;;;;;;5012678;28;20201;-70
2023/06/18 13:43:31;;;;;;;5.30;4.45;;;;;;;;;;5013372;28;20676;-70
2023/06/18 13:46:35;;;;;;;6.13;4.57;;;;;;;;;;5012984;28;20182;-70
2023/06/18 13:49:39;;;;;;;6.13;4.30;;;;;;;;;;5013694;28;20277;-70
2023/06/18 13:52:43;;;;;;;7.13;4.72;;;;;;;;;;5012496;28;20217;-70
2023/06/18 13:55:47;;;;;;;4.72;4.30;;;;;;;;;;5012756;28;20178;-70
2023/06/18 13:58:52;;;;;;;6.82;5.03;;;;;;;;;;5014052;28;20174;-70
2023/06/18 14:01:56;;;;;;;5.93;4.70;;;;;;;;;;5013130;28;20221;-70
2023/06/18 14:05:00;;;;;;;4.88;4.40;;;;;;;;;;5013225;28;20185;-70
2023/06/18 14:08:04;;;;;;;5.07;4.30;;;;;;;;;;5013065;28;20209;-70
2023/06/18 14:11:10;;;;;;;5.25;4.75;;;;;;;;;;5017408;28;20695;-70
2023/06/18 14:14:15;;;;;;;4.85;4.05;;;;;;;;;;5016249;28;20197;-70
2023/06/18 14:17:19;;;;;;;5.93;3.88;;;;;;;;;;5016416;28;20174;-72
2023/06/18 14:20:23;;;;;;;5.57;4.20;;;;;;;;;;5016895;28;20534;-70
2023/06/18 14:23:27;;;;;;;6.38;4.40;;;;;;;;;;5017225;28;20178;-70
2023/06/18 14:26:32;;;;;;;5.13;4.40;;;;;;;;;;5016896;28;20177;-70
2023/06/18 14:29:35;;;;;;;5.80;4.72;;;;;;;;;;5016820;28;20513;-70
2023/06/18 14:32:40;;;;;;;4.95;4.32;;;;;;;;;;5016015;28;20210;-74
2023/06/18 14:35:44;;;;;;;5.45;4.78;;;;;;;;;;5015936;28;20629;-70
2023/06/18 14:38:48;;;;;;;4.75;4.35;;;;;;;;;;5016101;28;20633;-70
2023/06/18 14:41:52;;;;;;;5.40;4.70;;;;;;;;;;5016319;28;20229;-71
2023/06/18 14:44:56;;;;;;;6.93;4.50;;;;;;;;;;5015906;28;20190;-70
2023/06/18 14:48:00;;;;;;;6.82;4.40;;;;;;;;;;5015700;28;20210;-70
2023/06/18 14:51:04;;;;;;;4.95;3.95;;;;;;;;;;5016246;28;20213;-70
2023/06/18 14:54:12;;;;;;;4.47;4.07;;;;;;;;;;5016188;28;20201;-70
2023/06/18 14:57:17;;;;;;;4.80;4.38;;;;;;;;;;5016171;28;20194;-70
2023/06/18 15:00:22;;;;;;;7.00;4.70;;;;;;;;;;5016105;28;20198;-70
2023/06/18 15:03:26;;;;;;;4.97;4.47;;;;;;;;;;5016033;28;20517;-70
2023/06/18 15:06:31;;;;;;;6.43;4.47;;;;;;;;;;5016012;28;20178;-70
2023/06/18 15:09:36;;;;;;;4.57;4.18;;;;;;;;;;5016425;28;20515;-70
2023/06/18 15:12:40;;;;;;;6.70;5.03;;;;;;;;;;5015070;28;20209;-70
2023/06/18 15:15:44;;;;;;;5.43;4.75;;;;;;;;;;5016079;28;20178;-70
2023/06/18 15:18:50;;;;;;;5.15;4.60;;;;;;;;;;5015856;28;20179;-70
2023/06/18 15:21:54;;;;;;;5.05;4.65;;;;;;;;;;5014134;28;20229;-70
2023/06/18 15:24:58;;;;;;;8.43;4.47;;;;;;;;;;5015936;28;20525;-70
2023/06/18 15:28:02;;;;;;;5.00;4.50;;;;;;;;;;5003703;28;20218;-70
2023/06/18 15:31:09;;;;;;;6.40;5.18;;;;;;;;;;5015457;28;20213;-70
2023/06/18 15:34:13;;;;;;;6.75;4.72;;;;;;;;;;5016005;28;20198;-70
2023/06/18 15:37:17;;;;;;;7.78;4.63;;;;;;;;;;5015008;28;20186;-70
2023/06/18 15:40:22;;;;;;;5.20;4.68;;;;;;;;;;5015560;28;20181;-69
2023/06/18 15:43:26;;;;;;;8.18;4.50;;;;;;;;;;5015208;28;20540;-69
2023/06/18 15:46:34;;;;;;;4.80;4.32;;;;;;;;;;5015959;28;20197;-69
2023/06/18 15:49:38;;;;;;;6.95;4.53;;;;;;;;;;5015413;28;20217;-69
2023/06/18 15:52:42;;;;;;;6.75;4.72;;;;;;;;;;5014521;28;20217;-69
2023/06/18 15:55:47;;;;;;;4.90;4.40;;;;;;;;;;5015685;28;20519;-69
2023/06/18 15:58:51;;;;;;;6.60;3.95;;;;;;;;;;5002977;28;20182;-69
2023/06/18 16:01:55;;;;;;;5.47;4.05;;;;;;;;;;5014898;28;20562;-70
2023/06/18 16:04:59;;;;;;;4.88;4.38;;;;;;;;;;5014439;28;20185;-71
2023/06/18 16:08:03;;;;;;;4.35;4.03;;;;;;;;;;5015067;28;20558;-71
2023/06/18 16:11:08;;;;;;;5.57;4.43;;;;;;;;;;5015067;28;20213;-71
2023/06/18 16:14:12;;;;;;;7.78;5.00;;;;;;;;;;5014878;28;20177;-71
2023/06/18 16:17:17;;;;;;;5.70;4.78;;;;;;;;;;5014715;28;20526;-71
2023/06/18 16:20:21;;;;;;;5.10;4.70;;;;;;;;;;5002758;28;20178;-71
2023/06/18 16:23:25;;;;;;;5.20;4.70;;;;;;;;;;5014687;28;20198;-71
2023/06/18 16:26:29;;;;;;;5.60;4.50;;;;;;;;;;5013684;28;20541;-71
2023/06/18 16:29:34;;;;;;;6.28;5.25;;;;;;;;;;5014367;28;20221;-71
2023/06/18 16:32:38;;;;;;;4.80;4.40;;;;;;;;;;5013702;28;20561;-71
2023/06/18 16:35:42;;;;;;;7.70;4.40;;;;;;;;;;5013794;28;20501;-71
2023/06/18 16:38:46;;;;;;;6.05;4.70;;;;;;;;;;5014625;28;20178;-71
2023/06/18 16:42:02;;;;;;;7.63;4.82;;;;;;;;;;5014121;28;20217;-71
2023/06/18 16:45:06;;;;;;;4.72;4.22;;;;;;;;;;4974165;28;20207;-72
2023/06/18 16:48:10;;;;;;;5.03;4.53;;;;;;;;;;4974242;28;20218;-71
2023/06/18 16:51:15;;;;;;;5.75;4.90;;;;;;;;;;4974215;28;20226;-72
2023/06/18 16:54:19;;;;;;;5.30;4.20;;;;;;;;;;4975311;28;20632;-71
2023/06/18 16:57:24;;;;;;;5.43;4.80;;;;;;;;;;4975208;28;20522;-72
2023/06/18 17:00:28;;;;;;;5.78;4.90;;;;;;;;;;4975591;28;20181;-71
2023/06/18 17:03:32;;;;;;;5.10;4.60;;;;;;;;;;4974776;28;20186;-71
2023/06/18 17:06:36;;;;;;;6.00;4.57;;;;;;;;;;4974736;28;20181;-71
2023/06/18 17:09:40;;;;;;;5.28;4.78;;;;;;;;;;4974697;28;20218;-71
2023/06/18 17:12:45;;;;;;;4.88;4.45;;;;;;;;;;4984858;28;20222;-71
2023/06/18 17:15:49;;;;;;;5.30;4.80;;;;;;;;;;4985044;28;20201;-71
2023/06/18 17:18:53;;;;;;;5.45;4.95;;;;;;;;;;4962640;28;20525;-71
2023/06/18 17:21:58;;;;;;;5.20;4.60;;;;;;;;;;4974470;28;20226;-71
2023/06/18 17:25:03;;;;;;;5.45;4.65;;;;;;;;;;4974440;28;20202;-71
2023/06/18 17:28:09;;;;;;;6.82;5.45;;;;;;;;;;4974381;28;20214;-71
2023/06/18 17:31:13;;;;;;;7.13;5.20;;;;;;;;;;4974343;28;20220;-71
2023/06/18 17:34:16;;;;;;;8.50;5.20;;;;;;;;;;4974582;28;20180;-71
2023/06/18 17:37:21;;;;;;;11.38;5.90;;;;;;;;;;4974863;28;20181;-71
2023/06/18 17:40:25;;;;;;;8.82;6.10;;;;;;;;;;4974265;28;20173;-71
2023/06/18 17:43:29;;;;;;;11.10;5.43;;;;;;;;;;4973805;28;20208;-71
2023/06/18 17:46:33;;;;;;;7.63;4.90;;;;;;;;;;4984578;28;20181;-70
2023/06/18 17:49:37;;;;;;;6.07;5.30;;;;;;;;;;4973622;28;20209;-70
2023/06/18 17:52:41;;;;;;;9.45;6.13;;;;;;;;;;4974096;28;20571;-70
2023/06/18 17:55:45;;;;;;;7.20;5.32;;;;;;;;;;4974314;28;20187;-70
2023/06/18 17:58:49;;;;;;;6.13;5.15;;;;;;;;;;4974172;28;20181;-70
2023/06/18 18:01:54;;;;;;;5.82;5.22;;;;;;;;;;4973956;28;20223;-70
2023/06/18 18:04:58;;;;;;;5.57;4.97;;;;;;;;;;4974085;28;20180;-71
2023/06/18 18:08:02;;;;;;;6.72;5.05;;;;;;;;;;4973908;28;20197;-71
2023/06/18 18:11:06;;;;;;;7.22;5.20;;;;;;;;;;4974426;28;20554;-70
2023/06/18 18:14:12;;;;;;;6.30;4.95;;;;;;;;;;4973436;28;20184;-70
2023/06/18 18:17:17;;;;;;;6.05;5.45;;;;;;;;;;4974147;28;20530;-70
2023/06/18 18:20:21;;;;;;;5.97;5.00;;;;;;;;;;4973362;28;20185;-70
2023/06/18 18:23:25;;;;;;;5.72;4.97;;;;;;;;;;4974164;28;20191;-70
2023/06/18 18:26:31;;;;;;;6.82;5.25;;;;;;;;;;4973873;28;20186;-70
2023/06/18 18:29:35;;;;;;;5.57;5.05;;;;;;;;;;4973778;28;20210;-70
2023/06/18 18:32:39;;;;;;;9.23;5.32;;;;;;;;;;4973908;28;20224;-70